Meteo Giornale » Osservazioni meteo Austria » Zeltweg

ore: 19:50 - Osservazioni Meteo Zeltweg
Lat. 47° 12' N Lon. 14° 45' E Alt. 677 metri s.l.m.

nuvoloso

19 °C

Nuvoloso

Temp. 24 Ore

12 °C

24 °C

Nord

5.5 Km/h

Dew point 13 °C

Umidità 68 %

Visibilità  10 Km

Il sole sorge alle ore 06:20

Il sole tramonta alle ore 19:41

Data e Ora Cielo e Fenomeni T °C DP °C Um. % Pres. hPa Vis. km Vento km/h
Oggi h: 19:50 nuvoloso Nuvoloso 19 13 68 1021 10 N 5.5
Oggi h: 18:50 nuvoloso Nuvoloso 22 12 53 1021 10 E/NE 7.4
Oggi h: 17:50 nuvoloso Nuvoloso 24 11 43 1021 10 E/NE 7.4
Oggi h: 16:50 nuvoloso Nuvoloso 24 10 41 1021 10 N 5.5
Oggi h: 16:20 nuvoloso Nuvoloso 24 10 41 1021 10 N 3.7
Oggi h: 15:50 molto_nuvoloso Molto Nuvoloso 23 11 46 1021 10 N 3.7
Oggi h: 15:20 molto_nuvoloso Molto Nuvoloso 24 11 43 1022 10 N 7.4
Oggi h: 14:50 molto_nuvoloso Molto Nuvoloso 24 11 43 1022 10 SO 7.4
Oggi h: 14:20 nuvoloso Nuvoloso 23 10 43 1022 10 N 5.5
Oggi h: 13:50 nuvoloso Nuvoloso 23 10 43 1022 10 E 9.3
Oggi h: 13:20 nuvoloso Nuvoloso 22 11 49 1022 10 NE 7.4
Oggi h: 12:50 nuvoloso Nuvoloso 21 12 56 1023 10 N 5.5
Oggi h: 12:20 nuvoloso Nuvoloso 20 12 59 1023 10 N 3.7
Oggi h: 11:50 poco_nuvoloso Poco Nuvoloso 19 12 63 1023 10 N 3.7
Oggi h: 11:20 poco_nuvoloso Poco Nuvoloso 18 12 67 1024 10 N 3.7
Oggi h: 10:50 poco_nuvoloso Poco Nuvoloso 17 12 72 1024 10 N 3.7
Oggi h: 10:20 poco_nuvoloso Poco Nuvoloso 16 11 72 1024 10 N 1.8
Oggi h: 09:50 nuvoloso Nuvoloso 15 11 76 1024 10 N 1.8
Oggi h: 09:20 nuvoloso Nuvoloso 15 11 76 1024 10 N 1.8
Oggi h: 08:50 molto_nuvoloso Molto Nuvoloso 15 11 76 1023 10 N 3.7
Oggi h: 08:20 molto_nuvoloso Molto Nuvoloso 13 12 93 1023 8 N 5.5
Oggi h: 07:50 molto_nuvoloso Molto Nuvoloso 13 11 87 1023 8 S 7.4
Oggi h: 07:20 molto_nuvoloso Molto Nuvoloso 12 11 93 1023 8 N 5.5
Oggi h: 06:50 molto_nuvoloso Molto Nuvoloso 13 12 93 1023 8 N 0
Oggi h: 05:50 molto_nuvoloso Molto Nuvoloso 12 12 100 1022 10 N 0
Oggi h: 04:50 molto_nuvoloso Molto Nuvoloso 12 11 93 1022 10 N 5.5
Ieri h: 22:50 nuvoloso_temporali Temporale 15 14 93 1022 6 N 5.5
Ieri h: 21:50 nuvoloso_temporali Temporale 16 14 87 1022 6 N 7.4
Ieri h: 20:50 nuvoloso_temporali Temporale 16 15 93 1019 10 N 5.5